Buoy 44845

sailwx.info

Track history (hours):
 
Tides and Currents Weather Stations Pressure Air Temp Water Temp Dewpoint Dewpoint Depression Visibility Wind Speed Wind Dir Waves Ship Positions

Drifting buoy 44845

Last reported at 2015-Jul-28 12:01 UTC. Time now 2015-Jul-28 13:19 UTC.
Position N 73°08' E 008°03'.

Date/timePositionNaut miles runAvg speedWind from/ knotsBaromVisibWave heightAir tempDewpointWater temp
2015-Jul-28 12:01N 73°08' E 008°03'1 0.6
2015-Jul-28 11:01N 73°08' E 008°05'1 0.7
2015-Jul-28 10:01N 73°08' E 008°08'1 0.6
2015-Jul-28 09:01N 73°08' E 008°10'1 0.7
2015-Jul-28 08:01N 73°08' E 008°12'1 0.8
2015-Jul-28 07:01N 73°08' E 008°15'1 0.8
2015-Jul-28 06:01N 73°08' E 008°18'1 0.7
2015-Jul-28 05:01N 73°08' E 008°20'1 0.7
2015-Jul-28 04:01N 73°08' E 008°23'1 0.5
2015-Jul-28 03:01N 73°08' E 008°24'0 0.4
2015-Jul-28 02:01N 73°08' E 008°26'0 0.4
2015-Jul-28 01:01N 73°08' E 008°27'0 0.3
2015-Jul-28 00:01N 73°08' E 008°28'0 0.3
2015-Jul-27 23:01N 73°08' E 008°29'0 0.3
2015-Jul-27 22:01N 73°08' E 008°30'0 0.3
2015-Jul-27 21:01N 73°08' E 008°31'0 0.5
2015-Jul-27 20:01N 73°08' E 008°33'1 0.5
2015-Jul-27 19:01N 73°07' E 008°35'0 0.5
2015-Jul-27 18:01N 73°07' E 008°36'0 0.5
2015-Jul-27 17:01N 73°07' E 008°38'0 0.4
2015-Jul-27 16:01N 73°07' E 008°39'0 0.4
2015-Jul-27 15:01N 73°07' E 008°40'0 0.3
2015-Jul-27 14:01N 73°07' E 008°41'0 0.2
2015-Jul-27 13:01N 73°07' E 008°42'0 0.1
2015-Jul-27 12:01N 73°07' E 008°42'0 0.1
2015-Jul-27 11:01N 73°07' E 008°42'0 0.2
2015-Jul-27 10:01N 73°07' E 008°42'0 0.2
2015-Jul-27 09:01N 73°07' E 008°42'0 0.1
2015-Jul-27 08:01N 73°06' E 008°43'0 0.1
2015-Jul-27 07:01N 73°06' E 008°43'0 0.2
2015-Jul-27 06:01N 73°06' E 008°43'0 0.3
2015-Jul-27 05:01N 73°06' E 008°44'0 0.3
2015-Jul-27 04:01N 73°06' E 008°44'0 0.2
2015-Jul-27 03:01N 73°05' E 008°44'0 0.1
2015-Jul-27 02:01N 73°05' E 008°44'0 0.2
2015-Jul-27 01:01N 73°05' E 008°43'0 0.3
2015-Jul-27 00:01N 73°05' E 008°43'1 0.4
2015-Jul-26 22:01N 73°04' E 008°41'1 0.5
2015-Jul-26 21:01N 73°04' E 008°40'1 0.5
2015-Jul-26 20:01N 73°04' E 008°39'1 0.6
2015-Jul-26 19:01N 73°03' E 008°38'1 0.6
2015-Jul-26 18:01N 73°03' E 008°36'1 0.7
2015-Jul-26 17:01N 73°02' E 008°35'1 0.8
2015-Jul-26 16:01N 73°01' E 008°34'1 0.7
2015-Jul-26 15:01N 73°01' E 008°33'1 0.6
2015-Jul-26 14:01N 73°00' E 008°31'1 0.6
2015-Jul-26 13:01N 72°60' E 008°29'1 0.6
2015-Jul-26 12:01N 72°59' E 008°28'1 0.6
2015-Jul-26 11:01N 72°59' E 008°26'1 0.6
2015-Jul-26 10:01N 72°59' E 008°24'1 0.7
2015-Jul-26 09:01N 72°58' E 008°22'1 0.6
2015-Jul-26 08:01N 72°58' E 008°20'1 0.6
2015-Jul-26 07:01N 72°58' E 008°19'0 0.5
2015-Jul-26 06:01N 72°57' E 008°18'1 0.5
2015-Jul-26 05:01N 72°57' E 008°17'0 0.4
2015-Jul-26 04:01N 72°57' E 008°16'0 0.3
2015-Jul-26 03:01N 72°56' E 008°15'0 0.4
2015-Jul-26 02:01N 72°56' E 008°14'0 0.3
2015-Jul-26 01:01N 72°56' E 008°13'0 0.4
2015-Jul-26 00:01N 72°56' E 008°11'0 0.4
2015-Jul-25 23:01N 72°56' E 008°10'0 0.3
2015-Jul-25 22:01N 72°56' E 008°09'0 0.4
2015-Jul-25 21:01N 72°56' E 008°08'0 0.4
2015-Jul-25 20:01N 72°56' E 008°07'0 0.3
2015-Jul-25 19:01N 72°56' E 008°06'0 0.2
2015-Jul-25 18:01N 72°56' E 008°05'0 0.1
2015-Jul-25 17:01N 72°56' E 008°05'0 0.1
2015-Jul-25 16:01N 72°56' E 008°04'0 0.2
2015-Jul-25 15:01N 72°56' E 008°04'0 0.4
2015-Jul-25 14:01N 72°56' E 008°04'1 0.3
2015-Jul-25 12:01N 72°57' E 008°03'0 0.3
2015-Jul-25 11:01N 72°57' E 008°03'0 0.3
2015-Jul-25 10:01N 72°57' E 008°03'0 0.3
2015-Jul-25 09:01N 72°58' E 008°03'0 0.3
2015-Jul-25 08:01N 72°58' E 008°02'0 0.2
2015-Jul-25 07:01N 72°58' E 008°02'0 0.2
2015-Jul-25 06:01N 72°58' E 008°02'0 0.4
2015-Jul-25 05:01N 72°59' E 008°01'1 0.5
2015-Jul-25 04:01N 72°59' E 008°01'1 0.5
2015-Jul-25 03:01N 72°60' E 007°60'0 0.4
2015-Jul-25 02:01N 73°00' E 007°59'1 0.5
2015-Jul-25 01:01N 73°01' E 007°58'0 0.5
2015-Jul-25 00:01N 73°01' E 007°57'1 0.5
2015-Jul-24 23:01N 73°02' E 007°56'1 0.6
2015-Jul-24 22:01N 73°02' E 007°55'1 0.5
2015-Jul-24 21:01N 73°03' E 007°55'1 0.9
2015-Jul-24 20:01N 73°03' E 007°54'1 0.3
2015-Jul-24 18:01N 73°04' E 007°54'1 0.7
2015-Jul-24 17:01N 73°05' E 007°54'2 2.0
2015-Jul-24 16:01N 73°07' E 007°55'18 0.9
2015-Jul-23 21:01N 73°10' E 008°55'1 0.9
2015-Jul-23 20:01N 73°10' E 008°59'1 1.0
2015-Jul-23 19:01N 73°10' E 009°02'1 0.9
2015-Jul-23 18:01N 73°10' E 009°05'1 0.9
2015-Jul-23 17:01N 73°11' E 009°08'1 0.8
2015-Jul-23 16:01N 73°11' E 009°11'1 0.7
2015-Jul-23 15:01N 73°11' E 009°13'1 0.7
2015-Jul-23 14:01N 73°11' E 009°15'1 0.7
2015-Jul-23 13:01N 73°11' E 009°17'1 0.6
2015-Jul-23 12:01N 73°12' E 009°19'1 0.5
2015-Jul-23 11:01N 73°12' E 009°21'1 0.6
2015-Jul-23 10:01N 73°12' E 009°23'1 0.5
2015-Jul-23 09:01N 73°12' E 009°24'0 0.5
2015-Jul-23 08:01N 73°13' E 009°26'0 0.4
2015-Jul-23 07:01N 73°13' E 009°27'0 0.3
2015-Jul-23 06:01N 73°13' E 009°28'0 0.4
2015-Jul-23 05:01N 73°13' E 009°29'1 0.5
2015-Jul-23 04:01N 73°13' E 009°31'1 0.6
2015-Jul-23 03:01N 73°14' E 009°32'1 0.7
2015-Jul-23 02:01N 73°14' E 009°34'1 0.6
2015-Jul-23 01:01N 73°15' E 009°35'1 0.6
2015-Jul-23 00:01N 73°15' E 009°37'0 0.5
2015-Jul-22 23:01N 73°15' E 009°37'0 0.3
2015-Jul-22 22:01N 73°16' E 009°37'0 0.3
2015-Jul-22 21:01N 73°16' E 009°38'0 0.3
2015-Jul-22 20:01N 73°16' E 009°39'0 0.4
2015-Jul-22 19:01N 73°16' E 009°41'1 0.6
2015-Jul-22 18:01N 73°16' E 009°43'1 0.7
2015-Jul-22 17:01N 73°17' E 009°45'0 0.5
2015-Jul-22 16:01N 73°17' E 009°46'0 0.4
2015-Jul-22 15:01N 73°17' E 009°47'0 0.4
2015-Jul-22 14:01N 73°17' E 009°48'0 0.5
2015-Jul-22 13:01N 73°18' E 009°49'0 0.4
2015-Jul-22 12:01N 73°18' E 009°51'0 0.4
2015-Jul-22 11:01N 73°18' E 009°52'0 0.4
2015-Jul-22 10:01N 73°18' E 009°53'0 0.4
2015-Jul-22 09:01N 73°18' E 009°55'0 0.4
2015-Jul-22 08:01N 73°18' E 009°56'0 0.4
2015-Jul-22 07:01N 73°18' E 009°57'1 0.5
2015-Jul-22 06:01N 73°18' E 009°59'1 0.6
2015-Jul-22 05:01N 73°18' E 010°01'1 0.6
2015-Jul-22 04:01N 73°18' E 010°03'0 0.5
2015-Jul-22 03:01N 73°18' E 010°05'0 0.4
2015-Jul-22 02:01N 73°18' E 010°06'0 0.3
2015-Jul-22 01:01N 73°18' E 010°07'0 0.3
2015-Jul-22 00:01N 73°18' E 010°08'0 0.2
2015-Jul-21 23:01N 73°18' E 010°09'0 0.3
2015-Jul-21 22:01N 73°18' E 010°10'0 0.4
2015-Jul-21 21:01N 73°18' E 010°11'1 0.5
2015-Jul-21 20:01N 73°18' E 010°13'0 0.5
2015-Jul-21 19:01N 73°18' E 010°14'0 0.5
2015-Jul-21 18:01N 73°18' E 010°16'0 0.4
2015-Jul-21 17:01N 73°17' E 010°17'0 0.4
2015-Jul-21 16:01N 73°17' E 010°19'0 0.3
2015-Jul-21 15:01N 73°17' E 010°20'0 0.4
2015-Jul-21 14:01N 73°17' E 010°21'1 0.4
2015-Jul-21 12:01N 73°17' E 010°23'1 0.5
2015-Jul-21 11:01N 73°16' E 010°24'0 0.5
2015-Jul-21 10:01N 73°16' E 010°26'0 0.4
2015-Jul-21 09:01N 73°16' E 010°27'0 0.5
2015-Jul-21 08:01N 73°15' E 010°28'0 0.4
2015-Jul-21 07:01N 73°15' E 010°29'1 0.5
2015-Jul-21 06:01N 73°15' E 010°30'0 0.5
2015-Jul-21 05:01N 73°14' E 010°31'0 0.4
2015-Jul-21 04:01N 73°14' E 010°32'0 0.5
2015-Jul-21 03:01N 73°13' E 010°33'0 0.5
2015-Jul-21 02:01N 73°13' E 010°33'1 0.5
2015-Jul-21 01:01N 73°13' E 010°34'0 0.5
2015-Jul-21 00:01N 73°12' E 010°35'1 0.6
2015-Jul-20 23:01N 73°12' E 010°35'1 0.6
2015-Jul-20 22:01N 73°11' E 010°36'1 0.6
2015-Jul-20 21:01N 73°10' E 010°37'1 0.6
2015-Jul-20 20:01N 73°10' E 010°38'1 0.5
2015-Jul-20 19:01N 73°09' E 010°38'1 0.8
2015-Jul-20 18:01N 73°09' E 010°39'1 0.9
2015-Jul-20 17:01N 73°08' E 010°41'1 0.8
2015-Jul-20 16:01N 73°07' E 010°42'1 0.9
2015-Jul-20 15:01N 73°06' E 010°44'1 0.8
2015-Jul-20 14:01N 73°06' E 010°46'1 0.8
2015-Jul-20 13:01N 73°05' E 010°48'1 0.7
2015-Jul-20 12:01N 73°05' E 010°50'1 0.7
2015-Jul-20 11:01N 73°05' E 010°51'1 0.7
2015-Jul-20 10:01N 73°04' E 010°53'1 0.8
2015-Jul-20 09:01N 73°03' E 010°55'1 0.9
2015-Jul-20 08:01N 73°03' E 010°57'1 0.9
2015-Jul-20 07:01N 73°02' E 010°60'1 1.0
2015-Jul-20 06:01N 73°01' E 011°02'1 1.0
2015-Jul-20 05:01N 73°01' E 011°05'1 0.8
2015-Jul-20 04:01N 73°00' E 011°07'1 0.7
2015-Jul-20 03:01N 73°00' E 011°09'1 0.6
2015-Jul-20 02:01N 73°00' E 011°11'1 0.5
2015-Jul-20 01:01N 72°60' E 011°13'0 0.5
2015-Jul-20 00:01N 72°60' E 011°14'0 0.4
2015-Jul-19 23:01N 72°59' E 011°16'0 0.4
2015-Jul-19 22:01N 72°59' E 011°17'0 0.4
2015-Jul-19 21:01N 72°59' E 011°18'1 0.4
2015-Jul-19 19:01N 72°59' E 011°20'0 0.3
2015-Jul-19 18:01N 72°59' E 011°21'0 0.3
2015-Jul-19 17:01N 72°59' E 011°23'0 0.4
2015-Jul-19 16:01N 72°59' E 011°24'0 0.4
2015-Jul-19 15:01N 72°59' E 011°25'0 0.5
2015-Jul-19 14:01N 72°59' E 011°27'1 0.6
2015-Jul-19 13:01N 72°60' E 011°28'0 0.4
2015-Jul-19 12:01N 73°00' E 011°29'0 0.4
2015-Jul-19 11:01N 73°01' E 011°29'0 0.4
2015-Jul-19 10:01N 73°01' E 011°29'0 0.3
2015-Jul-19 09:01N 73°01' E 011°28'0 0.1
2015-Jul-19 08:01N 73°01' E 011°28'0 0.2
2015-Jul-19 06:01N 73°02' E 011°29'0 0.2
2015-Jul-19 05:01N 73°02' E 011°30'0 0.4
2015-Jul-19 04:01N 73°02' E 011°31'0 0.5
2015-Jul-19 03:01N 73°02' E 011°32'1 0.6
2015-Jul-19 02:01N 73°03' E 011°32'1 0.6
2015-Jul-19 01:01N 73°03' E 011°32'1 0.6
2015-Jul-19 00:01N 73°04' E 011°31'0 0.4
2015-Jul-18 23:01N 73°04' E 011°31'0 0.4
2015-Jul-18 22:01N 73°05' E 011°29'0 0.3
2015-Jul-18 21:01N 73°05' E 011°29'0 0.1
2015-Jul-18 20:01N 73°05' E 011°28'0 0.1
2015-Jul-18 19:01N 73°05' E 011°28'0 0.1
2015-Jul-18 18:01N 73°05' E 011°28'0 0.2
2015-Jul-18 17:01N 73°05' E 011°29'0 0.2
2015-Jul-18 16:01N 73°05' E 011°29'0 0.3
2015-Jul-18 15:01N 73°05' E 011°30'1 0.4
2015-Jul-18 13:01N 73°06' E 011°30'0 0.4
2015-Jul-18 12:01N 73°06' E 011°29'  
Track history (hours):
 
Tides and Currents Weather Stations Pressure Air Temp Water Temp Dewpoint Dewpoint Depression Visibility Wind Speed Wind Dir Waves Ship Positions

Drifting buoy 44845

Last reported at 2015-Jul-28 12:01 UTC. Time now 2015-Jul-28 13:19 UTC.
Position N 73°08' E 008°03'.

Date/timePositionNaut miles runAvg speedWind from/ knotsBaromVisibWave heightAir tempDewpointWater temp
2015-Jul-28 12:01N 73°08' E 008°03'1 0.6
2015-Jul-28 11:01N 73°08' E 008°05'1 0.7
2015-Jul-28 10:01N 73°08' E 008°08'1 0.6
2015-Jul-28 09:01N 73°08' E 008°10'1 0.7
2015-Jul-28 08:01N 73°08' E 008°12'1 0.8
2015-Jul-28 07:01N 73°08' E 008°15'1 0.8
2015-Jul-28 06:01N 73°08' E 008°18'1 0.7
2015-Jul-28 05:01N 73°08' E 008°20'1 0.7
2015-Jul-28 04:01N 73°08' E 008°23'1 0.5
2015-Jul-28 03:01N 73°08' E 008°24'0 0.4
2015-Jul-28 02:01N 73°08' E 008°26'0 0.4
2015-Jul-28 01:01N 73°08' E 008°27'0 0.3
2015-Jul-28 00:01N 73°08' E 008°28'0 0.3
2015-Jul-27 23:01N 73°08' E 008°29'0 0.3
2015-Jul-27 22:01N 73°08' E 008°30'0 0.3
2015-Jul-27 21:01N 73°08' E 008°31'0 0.5
2015-Jul-27 20:01N 73°08' E 008°33'1 0.5
2015-Jul-27 19:01N 73°07' E 008°35'0 0.5
2015-Jul-27 18:01N 73°07' E 008°36'0 0.5
2015-Jul-27 17:01N 73°07' E 008°38'0 0.4
2015-Jul-27 16:01N 73°07' E 008°39'0 0.4
2015-Jul-27 15:01N 73°07' E 008°40'0 0.3
2015-Jul-27 14:01N 73°07' E 008°41'0 0.2
2015-Jul-27 13:01N 73°07' E 008°42'0 0.1
2015-Jul-27 12:01N 73°07' E 008°42'0 0.1
2015-Jul-27 11:01N 73°07' E 008°42'0 0.2
2015-Jul-27 10:01N 73°07' E 008°42'0 0.2
2015-Jul-27 09:01N 73°07' E 008°42'0 0.1
2015-Jul-27 08:01N 73°06' E 008°43'0 0.1
2015-Jul-27 07:01N 73°06' E 008°43'0 0.2
2015-Jul-27 06:01N 73°06' E 008°43'0 0.3
2015-Jul-27 05:01N 73°06' E 008°44'0 0.3
2015-Jul-27 04:01N 73°06' E 008°44'0 0.2
2015-Jul-27 03:01N 73°05' E 008°44'0 0.1
2015-Jul-27 02:01N 73°05' E 008°44'0 0.2
2015-Jul-27 01:01N 73°05' E 008°43'0 0.3
2015-Jul-27 00:01N 73°05' E 008°43'1 0.4
2015-Jul-26 22:01N 73°04' E 008°41'1 0.5
2015-Jul-26 21:01N 73°04' E 008°40'1 0.5
2015-Jul-26 20:01N 73°04' E 008°39'1 0.6
2015-Jul-26 19:01N 73°03' E 008°38'1 0.6
2015-Jul-26 18:01N 73°03' E 008°36'1 0.7
2015-Jul-26 17:01N 73°02' E 008°35'1 0.8
2015-Jul-26 16:01N 73°01' E 008°34'1 0.7
2015-Jul-26 15:01N 73°01' E 008°33'1 0.6
2015-Jul-26 14:01N 73°00' E 008°31'1 0.6
2015-Jul-26 13:01N 72°60' E 008°29'1 0.6
2015-Jul-26 12:01N 72°59' E 008°28'1 0.6
2015-Jul-26 11:01N 72°59' E 008°26'1 0.6
2015-Jul-26 10:01N 72°59' E 008°24'1 0.7
2015-Jul-26 09:01N 72°58' E 008°22'1 0.6
2015-Jul-26 08:01N 72°58' E 008°20'1 0.6
2015-Jul-26 07:01N 72°58' E 008°19'0 0.5
2015-Jul-26 06:01N 72°57' E 008°18'1 0.5
2015-Jul-26 05:01N 72°57' E 008°17'0 0.4
2015-Jul-26 04:01N 72°57' E 008°16'0 0.3
2015-Jul-26 03:01N 72°56' E 008°15'0 0.4
2015-Jul-26 02:01N 72°56' E 008°14'0 0.3
2015-Jul-26 01:01N 72°56' E 008°13'0 0.4
2015-Jul-26 00:01N 72°56' E 008°11'0 0.4
2015-Jul-25 23:01N 72°56' E 008°10'0 0.3
2015-Jul-25 22:01N 72°56' E 008°09'0 0.4
2015-Jul-25 21:01N 72°56' E 008°08'0 0.4
2015-Jul-25 20:01N 72°56' E 008°07'0 0.3
2015-Jul-25 19:01N 72°56' E 008°06'0 0.2
2015-Jul-25 18:01N 72°56' E 008°05'0 0.1
2015-Jul-25 17:01N 72°56' E 008°05'0 0.1
2015-Jul-25 16:01N 72°56' E 008°04'0 0.2
2015-Jul-25 15:01N 72°56' E 008°04'0 0.4
2015-Jul-25 14:01N 72°56' E 008°04'1 0.3
2015-Jul-25 12:01N 72°57' E 008°03'0 0.3
2015-Jul-25 11:01N 72°57' E 008°03'0 0.3
2015-Jul-25 10:01N 72°57' E 008°03'0 0.3
2015-Jul-25 09:01N 72°58' E 008°03'0 0.3
2015-Jul-25 08:01N 72°58' E 008°02'0 0.2
2015-Jul-25 07:01N 72°58' E 008°02'0 0.2
2015-Jul-25 06:01N 72°58' E 008°02'0 0.4
2015-Jul-25 05:01N 72°59' E 008°01'1 0.5
2015-Jul-25 04:01N 72°59' E 008°01'1 0.5
2015-Jul-25 03:01N 72°60' E 007°60'0 0.4
2015-Jul-25 02:01N 73°00' E 007°59'1 0.5
2015-Jul-25 01:01N 73°01' E 007°58'0 0.5
2015-Jul-25 00:01N 73°01' E 007°57'1 0.5
2015-Jul-24 23:01N 73°02' E 007°56'1 0.6
2015-Jul-24 22:01N 73°02' E 007°55'1 0.5
2015-Jul-24 21:01N 73°03' E 007°55'1 0.9
2015-Jul-24 20:01N 73°03' E 007°54'1 0.3
2015-Jul-24 18:01N 73°04' E 007°54'1 0.7
2015-Jul-24 17:01N 73°05' E 007°54'2 2.0
2015-Jul-24 16:01N 73°07' E 007°55'18 0.9
2015-Jul-23 21:01N 73°10' E 008°55'1 0.9
2015-Jul-23 20:01N 73°10' E 008°59'1 1.0
2015-Jul-23 19:01N 73°10' E 009°02'1 0.9
2015-Jul-23 18:01N 73°10' E 009°05'1 0.9
2015-Jul-23 17:01N 73°11' E 009°08'1 0.8
2015-Jul-23 16:01N 73°11' E 009°11'1 0.7
2015-Jul-23 15:01N 73°11' E 009°13'1 0.7
2015-Jul-23 14:01N 73°11' E 009°15'1 0.7
2015-Jul-23 13:01N 73°11' E 009°17'1 0.6
2015-Jul-23 12:01N 73°12' E 009°19'1 0.5
2015-Jul-23 11:01N 73°12' E 009°21'1 0.6
2015-Jul-23 10:01N 73°12' E 009°23'1 0.5
2015-Jul-23 09:01N 73°12' E 009°24'0 0.5
2015-Jul-23 08:01N 73°13' E 009°26'0 0.4
2015-Jul-23 07:01N 73°13' E 009°27'0 0.3
2015-Jul-23 06:01N 73°13' E 009°28'0 0.4
2015-Jul-23 05:01N 73°13' E 009°29'1 0.5
2015-Jul-23 04:01N 73°13' E 009°31'1 0.6
2015-Jul-23 03:01N 73°14' E 009°32'1 0.7
2015-Jul-23 02:01N 73°14' E 009°34'1 0.6
2015-Jul-23 01:01N 73°15' E 009°35'1 0.6
2015-Jul-23 00:01N 73°15' E 009°37'0 0.5
2015-Jul-22 23:01N 73°15' E 009°37'0 0.3
2015-Jul-22 22:01N 73°16' E 009°37'0 0.3
2015-Jul-22 21:01N 73°16' E 009°38'0 0.3
2015-Jul-22 20:01N 73°16' E 009°39'0 0.4
2015-Jul-22 19:01N 73°16' E 009°41'1 0.6
2015-Jul-22 18:01N 73°16' E 009°43'1 0.7
2015-Jul-22 17:01N 73°17' E 009°45'0 0.5
2015-Jul-22 16:01N 73°17' E 009°46'0 0.4
2015-Jul-22 15:01N 73°17' E 009°47'0 0.4
2015-Jul-22 14:01N 73°17' E 009°48'0 0.5
2015-Jul-22 13:01N 73°18' E 009°49'0 0.4
2015-Jul-22 12:01N 73°18' E 009°51'0 0.4
2015-Jul-22 11:01N 73°18' E 009°52'0 0.4
2015-Jul-22 10:01N 73°18' E 009°53'0 0.4
2015-Jul-22 09:01N 73°18' E 009°55'0 0.4
2015-Jul-22 08:01N 73°18' E 009°56'0 0.4
2015-Jul-22 07:01N 73°18' E 009°57'1 0.5
2015-Jul-22 06:01N 73°18' E 009°59'1 0.6
2015-Jul-22 05:01N 73°18' E 010°01'1 0.6
2015-Jul-22 04:01N 73°18' E 010°03'0 0.5
2015-Jul-22 03:01N 73°18' E 010°05'0 0.4
2015-Jul-22 02:01N 73°18' E 010°06'0 0.3
2015-Jul-22 01:01N 73°18' E 010°07'0 0.3
2015-Jul-22 00:01N 73°18' E 010°08'0 0.2
2015-Jul-21 23:01N 73°18' E 010°09'0 0.3
2015-Jul-21 22:01N 73°18' E 010°10'0 0.4
2015-Jul-21 21:01N 73°18' E 010°11'1 0.5
2015-Jul-21 20:01N 73°18' E 010°13'0 0.5
2015-Jul-21 19:01N 73°18' E 010°14'0 0.5
2015-Jul-21 18:01N 73°18' E 010°16'0 0.4
2015-Jul-21 17:01N 73°17' E 010°17'0 0.4
2015-Jul-21 16:01N 73°17' E 010°19'0 0.3
2015-Jul-21 15:01N 73°17' E 010°20'0 0.4
2015-Jul-21 14:01N 73°17' E 010°21'1 0.4
2015-Jul-21 12:01N 73°17' E 010°23'1 0.5
2015-Jul-21 11:01N 73°16' E 010°24'0 0.5
2015-Jul-21 10:01N 73°16' E 010°26'0 0.4
2015-Jul-21 09:01N 73°16' E 010°27'0 0.5
2015-Jul-21 08:01N 73°15' E 010°28'0 0.4
2015-Jul-21 07:01N 73°15' E 010°29'1 0.5
2015-Jul-21 06:01N 73°15' E 010°30'0 0.5
2015-Jul-21 05:01N 73°14' E 010°31'0 0.4
2015-Jul-21 04:01N 73°14' E 010°32'0 0.5
2015-Jul-21 03:01N 73°13' E 010°33'0 0.5
2015-Jul-21 02:01N 73°13' E 010°33'1 0.5
2015-Jul-21 01:01N 73°13' E 010°34'0 0.5
2015-Jul-21 00:01N 73°12' E 010°35'1 0.6
2015-Jul-20 23:01N 73°12' E 010°35'1 0.6
2015-Jul-20 22:01N 73°11' E 010°36'1 0.6
2015-Jul-20 21:01N 73°10' E 010°37'1 0.6
2015-Jul-20 20:01N 73°10' E 010°38'1 0.5
2015-Jul-20 19:01N 73°09' E 010°38'1 0.8
2015-Jul-20 18:01N 73°09' E 010°39'1 0.9
2015-Jul-20 17:01N 73°08' E 010°41'1 0.8
2015-Jul-20 16:01N 73°07' E 010°42'1 0.9
2015-Jul-20 15:01N 73°06' E 010°44'1 0.8
2015-Jul-20 14:01N 73°06' E 010°46'1 0.8
2015-Jul-20 13:01N 73°05' E 010°48'1 0.7
2015-Jul-20 12:01N 73°05' E 010°50'1 0.7
2015-Jul-20 11:01N 73°05' E 010°51'1 0.7
2015-Jul-20 10:01N 73°04' E 010°53'1 0.8
2015-Jul-20 09:01N 73°03' E 010°55'1 0.9
2015-Jul-20 08:01N 73°03' E 010°57'1 0.9
2015-Jul-20 07:01N 73°02' E 010°60'1 1.0
2015-Jul-20 06:01N 73°01' E 011°02'1 1.0
2015-Jul-20 05:01N 73°01' E 011°05'1 0.8
2015-Jul-20 04:01N 73°00' E 011°07'1 0.7
2015-Jul-20 03:01N 73°00' E 011°09'1 0.6
2015-Jul-20 02:01N 73°00' E 011°11'1 0.5
2015-Jul-20 01:01N 72°60' E 011°13'0 0.5
2015-Jul-20 00:01N 72°60' E 011°14'0 0.4
2015-Jul-19 23:01N 72°59' E 011°16'0 0.4
2015-Jul-19 22:01N 72°59' E 011°17'0 0.4
2015-Jul-19 21:01N 72°59' E 011°18'1 0.4
2015-Jul-19 19:01N 72°59' E 011°20'0 0.3
2015-Jul-19 18:01N 72°59' E 011°21'0 0.3
2015-Jul-19 17:01N 72°59' E 011°23'0 0.4
2015-Jul-19 16:01N 72°59' E 011°24'0 0.4
2015-Jul-19 15:01N 72°59' E 011°25'0 0.5
2015-Jul-19 14:01N 72°59' E 011°27'1 0.6
2015-Jul-19 13:01N 72°60' E 011°28'0 0.4
2015-Jul-19 12:01N 73°00' E 011°29'0 0.4
2015-Jul-19 11:01N 73°01' E 011°29'0 0.4
2015-Jul-19 10:01N 73°01' E 011°29'0 0.3
2015-Jul-19 09:01N 73°01' E 011°28'0 0.1
2015-Jul-19 08:01N 73°01' E 011°28'0 0.2
2015-Jul-19 06:01N 73°02' E 011°29'0 0.2
2015-Jul-19 05:01N 73°02' E 011°30'0 0.4
2015-Jul-19 04:01N 73°02' E 011°31'0 0.5
2015-Jul-19 03:01N 73°02' E 011°32'1 0.6
2015-Jul-19 02:01N 73°03' E 011°32'1 0.6
2015-Jul-19 01:01N 73°03' E 011°32'1 0.6
2015-Jul-19 00:01N 73°04' E 011°31'0 0.4
2015-Jul-18 23:01N 73°04' E 011°31'0 0.4
2015-Jul-18 22:01N 73°05' E 011°29'0 0.3
2015-Jul-18 21:01N 73°05' E 011°29'0 0.1
2015-Jul-18 20:01N 73°05' E 011°28'0 0.1
2015-Jul-18 19:01N 73°05' E 011°28'0 0.1
2015-Jul-18 18:01N 73°05' E 011°28'0 0.2
2015-Jul-18 17:01N 73°05' E 011°29'0 0.2
2015-Jul-18 16:01N 73°05' E 011°29'0 0.3
2015-Jul-18 15:01N 73°05' E 011°30'1 0.4
2015-Jul-18 13:01N 73°06' E 011°30'0 0.4
2015-Jul-18 12:01N 73°06' E 011°29'  

Dump ship's entire track history